sensor_id;sensor_type;location;lat;lon;timestamp;temperature;humidity
3860;DHT22;1945;52.036;8.614;2022-09-20T00:01:11;11.10;1.00
3860;DHT22;1945;52.036;8.614;2022-09-20T00:03:40;11.10;1.00
3860;DHT22;1945;52.036;8.614;2022-09-20T00:06:09;11.10;1.00
3860;DHT22;1945;52.036;8.614;2022-09-20T00:08:36;11.00;1.00
3860;DHT22;1945;52.036;8.614;2022-09-20T00:11:05;11.00;1.00
3860;DHT22;1945;52.036;8.614;2022-09-20T00:13:34;10.90;1.00
3860;DHT22;1945;52.036;8.614;2022-09-20T00:16:05;10.80;1.00
3860;DHT22;1945;52.036;8.614;2022-09-20T00:18:32;10.80;1.00
3860;DHT22;1945;52.036;8.614;2022-09-20T00:20:59;10.80;1.00
3860;DHT22;1945;52.036;8.614;2022-09-20T00:23:25;10.80;1.00
3860;DHT22;1945;52.036;8.614;2022-09-20T00:25:55;10.80;1.00
3860;DHT22;1945;52.036;8.614;2022-09-20T00:28:23;10.80;1.00
3860;DHT22;1945;52.036;8.614;2022-09-20T00:30:51;10.80;1.00
3860;DHT22;1945;52.036;8.614;2022-09-20T00:33:19;10.60;1.00
3860;DHT22;1945;52.036;8.614;2022-09-20T00:35:46;10.70;1.00
3860;DHT22;1945;52.036;8.614;2022-09-20T00:38:13;10.70;1.00
3860;DHT22;1945;52.036;8.614;2022-09-20T00:40:40;10.70;1.00
3860;DHT22;1945;52.036;8.614;2022-09-20T00:43:11;10.70;1.00
3860;DHT22;1945;52.036;8.614;2022-09-20T00:45:39;10.70;1.00
3860;DHT22;1945;52.036;8.614;2022-09-20T00:48:10;10.70;1.00
3860;DHT22;1945;52.036;8.614;2022-09-20T00:50:41;10.70;1.00
3860;DHT22;1945;52.036;8.614;2022-09-20T00:53:12;10.70;1.00
3860;DHT22;1945;52.036;8.614;2022-09-20T00:55:41;10.60;1.00
3860;DHT22;1945;52.036;8.614;2022-09-20T00:58:10;10.60;1.00
3860;DHT22;1945;52.036;8.614;2022-09-20T01:00:39;10.60;3.00
3860;DHT22;1945;52.036;8.614;2022-09-20T01:03:08;10.60;1.00
3860;DHT22;1945;52.036;8.614;2022-09-20T01:05:36;10.60;4.70
3860;DHT22;1945;52.036;8.614;2022-09-20T01:08:05;10.60;11.30
3860;DHT22;1945;52.036;8.614;2022-09-20T01:10:33;10.60;38.40
3860;DHT22;1945;52.036;8.614;2022-09-20T01:13:00;10.60;41.00
3860;DHT22;1945;52.036;8.614;2022-09-20T01:15:28;10.60;54.50
3860;DHT22;1945;52.036;8.614;2022-09-20T01:17:57;10.60;32.80
3860;DHT22;1945;52.036;8.614;2022-09-20T01:20:27;10.50;48.20
3860;DHT22;1945;52.036;8.614;2022-09-20T01:23:17;10.50;48.30
3860;DHT22;1945;52.036;8.614;2022-09-20T01:26:12;10.50;49.20
3860;DHT22;1945;52.036;8.614;2022-09-20T01:28:45;10.40;71.00
3860;DHT22;1945;52.036;8.614;2022-09-20T01:31:16;10.40;98.10
3860;DHT22;1945;52.036;8.614;2022-09-20T01:33:48;10.30;99.90
3860;DHT22;1945;52.036;8.614;2022-09-20T01:36:20;10.30;99.90
3860;DHT22;1945;52.036;8.614;2022-09-20T01:38:54;10.30;99.90
3860;DHT22;1945;52.036;8.614;2022-09-20T01:41:27;10.30;99.90
3860;DHT22;1945;52.036;8.614;2022-09-20T01:44:05;10.20;99.90
3860;DHT22;1945;52.036;8.614;2022-09-20T01:46:37;10.20;99.90
3860;DHT22;1945;52.036;8.614;2022-09-20T01:49:13;10.20;99.90
3860;DHT22;1945;52.036;8.614;2022-09-20T01:54:59;9.90;99.90
3860;DHT22;1945;52.036;8.614;2022-09-20T02:00:51;10.00;99.90
3860;DHT22;1945;52.036;8.614;2022-09-20T02:03:47;10.00;99.90
3860;DHT22;1945;52.036;8.614;2022-09-20T02:06:30;10.00;99.90
3860;DHT22;1945;52.036;8.614;2022-09-20T02:12:15;9.90;99.90
3860;DHT22;1945;52.036;8.614;2022-09-20T02:14:48;9.80;99.90
3860;DHT22;1945;52.036;8.614;2022-09-20T02:17:25;9.80;99.90
3860;DHT22;1945;52.036;8.614;2022-09-20T02:20:02;9.80;99.90
3860;DHT22;1945;52.036;8.614;2022-09-20T02:22:50;9.80;99.90
3860;DHT22;1945;52.036;8.614;2022-09-20T02:25:34;9.80;99.90
3860;DHT22;1945;52.036;8.614;2022-09-20T02:28:11;9.80;99.90
3860;DHT22;1945;52.036;8.614;2022-09-20T02:30:49;9.70;99.90
3860;DHT22;1945;52.036;8.614;2022-09-20T02:33:39;9.70;99.90
3860;DHT22;1945;52.036;8.614;2022-09-20T02:36:27;9.70;99.90
3860;DHT22;1945;52.036;8.614;2022-09-20T02:39:05;9.70;99.90
3860;DHT22;1945;52.036;8.614;2022-09-20T02:41:47;9.60;99.90
3860;DHT22;1945;52.036;8.614;2022-09-20T02:44:24;9.60;99.90
3860;DHT22;1945;52.036;8.614;2022-09-20T02:46:58;9.60;99.90
3860;DHT22;1945;52.036;8.614;2022-09-20T02:49:30;9.60;99.90
3860;DHT22;1945;52.036;8.614;2022-09-20T02:52:06;9.60;99.90
3860;DHT22;1945;52.036;8.614;2022-09-20T02:54:44;9.60;99.90
3860;DHT22;1945;52.036;8.614;2022-09-20T02:57:16;9.60;99.90
3860;DHT22;1945;52.036;8.614;2022-09-20T02:59:49;9.60;99.90
3860;DHT22;1945;52.036;8.614;2022-09-20T03:02:23;9.60;99.90
3860;DHT22;1945;52.036;8.614;2022-09-20T03:05:03;9.60;99.90
3860;DHT22;1945;52.036;8.614;2022-09-20T03:07:41;9.50;99.90
3860;DHT22;1945;52.036;8.614;2022-09-20T03:10:17;9.50;99.90
3860;DHT22;1945;52.036;8.614;2022-09-20T03:12:54;9.50;99.90
3860;DHT22;1945;52.036;8.614;2022-09-20T03:15:29;9.50;99.90
3860;DHT22;1945;52.036;8.614;2022-09-20T03:18:06;9.50;99.90
3860;DHT22;1945;52.036;8.614;2022-09-20T03:20:42;9.50;99.90
3860;DHT22;1945;52.036;8.614;2022-09-20T03:23:22;9.50;99.90
3860;DHT22;1945;52.036;8.614;2022-09-20T03:25:56;9.50;99.90
3860;DHT22;1945;52.036;8.614;2022-09-20T03:28:46;9.50;99.90
3860;DHT22;1945;52.036;8.614;2022-09-20T03:31:24;9.50;99.90
3860;DHT22;1945;52.036;8.614;2022-09-20T03:34:01;9.40;99.90
3860;DHT22;1945;52.036;8.614;2022-09-20T03:36:50;9.40;99.90
3860;DHT22;1945;52.036;8.614;2022-09-20T03:39:36;9.40;99.90
3860;DHT22;1945;52.036;8.614;2022-09-20T03:42:15;9.40;99.90
3860;DHT22;1945;52.036;8.614;2022-09-20T03:45:11;9.40;99.90
3860;DHT22;1945;52.036;8.614;2022-09-20T03:48:02;9.40;99.90
3860;DHT22;1945;52.036;8.614;2022-09-20T03:50:46;9.40;99.90
3860;DHT22;1945;52.036;8.614;2022-09-20T03:56:41;9.30;99.90
3860;DHT22;1945;52.036;8.614;2022-09-20T03:59:20;9.30;99.90
3860;DHT22;1945;52.036;8.614;2022-09-20T04:02:13;9.30;99.90
3860;DHT22;1945;52.036;8.614;2022-09-20T04:04:48;9.40;99.90
3860;DHT22;1945;52.036;8.614;2022-09-20T04:07:19;9.50;99.90
3860;DHT22;1945;52.036;8.614;2022-09-20T04:10:10;9.50;99.90
3860;DHT22;1945;52.036;8.614;2022-09-20T04:12:44;9.60;99.90
3860;DHT22;1945;52.036;8.614;2022-09-20T04:15:22;9.60;99.90
3860;DHT22;1945;52.036;8.614;2022-09-20T04:17:57;9.60;99.90
3860;DHT22;1945;52.036;8.614;2022-09-20T04:20:33;10.10;99.90
3860;DHT22;1945;52.036;8.614;2022-09-20T04:23:11;9.70;99.90
3860;DHT22;1945;52.036;8.614;2022-09-20T04:25:45;9.70;99.90
3860;DHT22;1945;52.036;8.614;2022-09-20T04:28:15;9.70;99.90
3860;DHT22;1945;52.036;8.614;2022-09-20T04:30:43;9.70;99.90
3860;DHT22;1945;52.036;8.614;2022-09-20T04:33:16;9.60;99.90
3860;DHT22;1945;52.036;8.614;2022-09-20T04:35:52;9.60;99.90
3860;DHT22;1945;52.036;8.614;2022-09-20T04:38:39;9.60;99.90
3860;DHT22;1945;52.036;8.614;2022-09-20T04:41:33;9.60;99.90
3860;DHT22;1945;52.036;8.614;2022-09-20T04:44:28;9.60;99.90
3860;DHT22;1945;52.036;8.614;2022-09-20T04:50:28;9.60;99.90
3860;DHT22;1945;52.036;8.614;2022-09-20T04:53:23;9.60;99.90
3860;DHT22;1945;52.036;8.614;2022-09-20T04:55:59;9.60;99.90
3860;DHT22;1945;52.036;8.614;2022-09-20T04:58:48;9.60;99.90
3860;DHT22;1945;52.036;8.614;2022-09-20T05:01:39;9.60;99.90
3860;DHT22;1945;52.036;8.614;2022-09-20T05:07:46;9.60;99.90
3860;DHT22;1945;52.036;8.614;2022-09-20T05:13:24;9.60;99.90
3860;DHT22;1945;52.036;8.614;2022-09-20T05:16:00;9.60;99.90
3860;DHT22;1945;52.036;8.614;2022-09-20T05:19:02;9.60;99.90
3860;DHT22;1945;52.036;8.614;2022-09-20T05:21:51;9.50;99.90
3860;DHT22;1945;52.036;8.614;2022-09-20T05:24:46;9.50;99.90
3860;DHT22;1945;52.036;8.614;2022-09-20T05:27:28;9.50;99.90
3860;DHT22;1945;52.036;8.614;2022-09-20T05:30:02;9.50;99.90
3860;DHT22;1945;52.036;8.614;2022-09-20T05:32:38;9.50;99.90
3860;DHT22;1945;52.036;8.614;2022-09-20T05:35:15;9.20;99.90
3860;DHT22;1945;52.036;8.614;2022-09-20T05:37:49;9.60;99.90
3860;DHT22;1945;52.036;8.614;2022-09-20T05:40:22;9.60;99.90
3860;DHT22;1945;52.036;8.614;2022-09-20T05:42:58;9.60;99.90
3860;DHT22;1945;52.036;8.614;2022-09-20T05:45:46;9.60;99.90
3860;DHT22;1945;52.036;8.614;2022-09-20T05:48:22;9.70;99.90
3860;DHT22;1945;52.036;8.614;2022-09-20T05:50:56;9.70;99.90
3860;DHT22;1945;52.036;8.614;2022-09-20T05:54:02;10.30;99.90
3860;DHT22;1945;52.036;8.614;2022-09-20T05:56:40;9.80;99.90
3860;DHT22;1945;52.036;8.614;2022-09-20T05:59:21;9.90;99.90
3860;DHT22;1945;52.036;8.614;2022-09-20T06:02:01;10.00;99.90
3860;DHT22;1945;52.036;8.614;2022-09-20T06:04:43;9.80;99.90
3860;DHT22;1945;52.036;8.614;2022-09-20T06:07:20;10.10;99.90
3860;DHT22;1945;52.036;8.614;2022-09-20T06:10:09;10.20;99.90
3860;DHT22;1945;52.036;8.614;2022-09-20T06:12:46;10.20;99.90
3860;DHT22;1945;52.036;8.614;2022-09-20T06:15:19;10.30;99.90
3860;DHT22;1945;52.036;8.614;2022-09-20T06:17:55;10.40;99.90
3860;DHT22;1945;52.036;8.614;2022-09-20T06:20:28;10.40;99.90
3860;DHT22;1945;52.036;8.614;2022-09-20T06:22:59;10.40;99.90
3860;DHT22;1945;52.036;8.614;2022-09-20T06:25:31;10.50;99.90
3860;DHT22;1945;52.036;8.614;2022-09-20T06:28:03;10.50;99.90
3860;DHT22;1945;52.036;8.614;2022-09-20T06:30:34;10.50;99.90
3860;DHT22;1945;52.036;8.614;2022-09-20T06:33:13;10.50;99.90
3860;DHT22;1945;52.036;8.614;2022-09-20T06:35:44;10.60;99.90
3860;DHT22;1945;52.036;8.614;2022-09-20T06:38:25;10.70;99.90
3860;DHT22;1945;52.036;8.614;2022-09-20T06:41:15;10.40;99.90
3860;DHT22;1945;52.036;8.614;2022-09-20T06:43:55;10.70;99.90
3860;DHT22;1945;52.036;8.614;2022-09-20T06:46:23;10.70;99.90
3860;DHT22;1945;52.036;8.614;2022-09-20T06:48:50;10.70;99.90
3860;DHT22;1945;52.036;8.614;2022-09-20T06:51:18;10.80;99.90
3860;DHT22;1945;52.036;8.614;2022-09-20T06:53:45;10.80;99.90
3860;DHT22;1945;52.036;8.614;2022-09-20T06:56:15;10.80;99.90
3860;DHT22;1945;52.036;8.614;2022-09-20T06:58:42;10.80;99.90
3860;DHT22;1945;52.036;8.614;2022-09-20T07:01:09;10.90;99.90
3860;DHT22;1945;52.036;8.614;2022-09-20T07:03:36;10.90;99.90
3860;DHT22;1945;52.036;8.614;2022-09-20T07:06:03;11.00;99.90
3860;DHT22;1945;52.036;8.614;2022-09-20T07:08:31;11.00;99.90
3860;DHT22;1945;52.036;8.614;2022-09-20T07:11:03;11.00;99.90
3860;DHT22;1945;52.036;8.614;2022-09-20T07:13:29;11.00;99.90
3860;DHT22;1945;52.036;8.614;2022-09-20T07:15:59;11.10;99.90
3860;DHT22;1945;52.036;8.614;2022-09-20T07:18:26;11.10;99.90
3860;DHT22;1945;52.036;8.614;2022-09-20T07:20:53;11.20;99.90
3860;DHT22;1945;52.036;8.614;2022-09-20T07:23:20;11.20;99.90
3860;DHT22;1945;52.036;8.614;2022-09-20T07:25:48;11.30;99.90
3860;DHT22;1945;52.036;8.614;2022-09-20T07:28:15;11.30;99.90
3860;DHT22;1945;52.036;8.614;2022-09-20T07:30:45;11.20;99.90
3860;DHT22;1945;52.036;8.614;2022-09-20T07:33:12;11.20;99.90
3860;DHT22;1945;52.036;8.614;2022-09-20T07:35:44;11.20;99.90
3860;DHT22;1945;52.036;8.614;2022-09-20T07:38:11;11.30;99.90
3860;DHT22;1945;52.036;8.614;2022-09-20T07:40:37;11.30;99.90
3860;DHT22;1945;52.036;8.614;2022-09-20T07:43:05;11.30;99.90
3860;DHT22;1945;52.036;8.614;2022-09-20T07:45:32;11.30;99.90
3860;DHT22;1945;52.036;8.614;2022-09-20T07:47:59;11.40;99.90
3860;DHT22;1945;52.036;8.614;2022-09-20T07:50:29;11.50;99.90
3860;DHT22;1945;52.036;8.614;2022-09-20T07:52:56;11.40;99.90
3860;DHT22;1945;52.036;8.614;2022-09-20T07:55:23;11.40;99.90
3860;DHT22;1945;52.036;8.614;2022-09-20T07:57:50;11.60;99.90
3860;DHT22;1945;52.036;8.614;2022-09-20T08:00:20;11.60;99.90
3860;DHT22;1945;52.036;8.614;2022-09-20T08:02:46;11.70;99.90
3860;DHT22;1945;52.036;8.614;2022-09-20T08:05:13;11.80;99.90
3860;DHT22;1945;52.036;8.614;2022-09-20T08:07:40;11.90;99.90
3860;DHT22;1945;52.036;8.614;2022-09-20T08:10:07;12.00;74.50
3860;DHT22;1945;52.036;8.614;2022-09-20T08:12:34;12.10;99.90
3860;DHT22;1945;52.036;8.614;2022-09-20T08:15:01;12.20;36.00
3860;DHT22;1945;52.036;8.614;2022-09-20T08:17:29;12.30;92.40
3860;DHT22;1945;52.036;8.614;2022-09-20T08:19:57;12.40;1.00
3860;DHT22;1945;52.036;8.614;2022-09-20T08:22:24;12.50;1.00
3860;DHT22;1945;52.036;8.614;2022-09-20T08:24:51;12.70;1.00
3860;DHT22;1945;52.036;8.614;2022-09-20T08:27:18;12.80;1.00
3860;DHT22;1945;52.036;8.614;2022-09-20T08:29:45;12.80;1.00
3860;DHT22;1945;52.036;8.614;2022-09-20T08:32:11;12.80;1.00
3860;DHT22;1945;52.036;8.614;2022-09-20T08:34:39;12.90;1.00
3860;DHT22;1945;52.036;8.614;2022-09-20T08:37:06;12.90;1.00
3860;DHT22;1945;52.036;8.614;2022-09-20T08:39:33;13.00;99.90
3860;DHT22;1945;52.036;8.614;2022-09-20T08:42:08;13.10;1.00
3860;DHT22;1945;52.036;8.614;2022-09-20T08:44:42;13.10;99.90
3860;DHT22;1945;52.036;8.614;2022-09-20T08:47:16;13.10;99.90
3860;DHT22;1945;52.036;8.614;2022-09-20T08:49:46;13.20;1.00
3860;DHT22;1945;52.036;8.614;2022-09-20T08:52:16;13.40;99.90
3860;DHT22;1945;52.036;8.614;2022-09-20T08:54:44;13.40;99.90
3860;DHT22;1945;52.036;8.614;2022-09-20T08:57:14;13.60;1.00
3860;DHT22;1945;52.036;8.614;2022-09-20T08:59:41;13.60;99.90
3860;DHT22;1945;52.036;8.614;2022-09-20T09:02:14;13.60;99.90
3860;DHT22;1945;52.036;8.614;2022-09-20T09:04:42;13.60;99.90
3860;DHT22;1945;52.036;8.614;2022-09-20T09:07:11;13.60;99.90
3860;DHT22;1945;52.036;8.614;2022-09-20T09:09:41;13.80;99.90
3860;DHT22;1945;52.036;8.614;2022-09-20T09:12:17;14.00;1.00
3860;DHT22;1945;52.036;8.614;2022-09-20T09:14:44;14.20;99.90
3860;DHT22;1945;52.036;8.614;2022-09-20T09:17:16;14.50;99.90
3860;DHT22;1945;52.036;8.614;2022-09-20T09:19:45;14.80;1.00
3860;DHT22;1945;52.036;8.614;2022-09-20T09:22:21;15.00;1.00
3860;DHT22;1945;52.036;8.614;2022-09-20T09:25:09;15.20;1.00
3860;DHT22;1945;52.036;8.614;2022-09-20T09:27:49;15.70;1.00
3860;DHT22;1945;52.036;8.614;2022-09-20T09:30:19;15.80;1.00
3860;DHT22;1945;52.036;8.614;2022-09-20T09:32:46;15.70;1.00
3860;DHT22;1945;52.036;8.614;2022-09-20T09:35:23;15.70;99.90
3860;DHT22;1945;52.036;8.614;2022-09-20T09:37:57;15.70;99.90
3860;DHT22;1945;52.036;8.614;2022-09-20T09:40:24;15.90;99.90
3860;DHT22;1945;52.036;8.614;2022-09-20T09:42:52;15.80;99.90
3860;DHT22;1945;52.036;8.614;2022-09-20T09:45:26;15.80;99.90
3860;DHT22;1945;52.036;8.614;2022-09-20T09:47:54;15.40;99.90
3860;DHT22;1945;52.036;8.614;2022-09-20T09:50:23;15.40;99.90
3860;DHT22;1945;52.036;8.614;2022-09-20T09:52:58;15.50;1.00
3860;DHT22;1945;52.036;8.614;2022-09-20T09:55:34;15.90;1.00
3860;DHT22;1945;52.036;8.614;2022-09-20T09:58:10;16.00;99.90
3860;DHT22;1945;52.036;8.614;2022-09-20T10:00:39;16.00;38.90
3860;DHT22;1945;52.036;8.614;2022-09-20T10:06:16;16.00;99.90
3860;DHT22;1945;52.036;8.614;2022-09-20T10:08:56;16.00;99.90
3860;DHT22;1945;52.036;8.614;2022-09-20T10:11:31;15.80;1.00
3860;DHT22;1945;52.036;8.614;2022-09-20T10:14:14;15.80;75.10
3860;DHT22;1945;52.036;8.614;2022-09-20T10:16:56;15.80;99.90
3860;DHT22;1945;52.036;8.614;2022-09-20T10:19:42;16.00;1.00
3860;DHT22;1945;52.036;8.614;2022-09-20T10:22:18;15.90;68.00
3860;DHT22;1945;52.036;8.614;2022-09-20T10:24:57;15.40;1.00
3860;DHT22;1945;52.036;8.614;2022-09-20T10:27:35;15.00;99.90
3860;DHT22;1945;52.036;8.614;2022-09-20T10:30:09;15.00;99.90
3860;DHT22;1945;52.036;8.614;2022-09-20T10:32:47;14.90;1.00
3860;DHT22;1945;52.036;8.614;2022-09-20T10:35:22;14.40;1.00
3860;DHT22;1945;52.036;8.614;2022-09-20T10:38:01;14.30;99.90
3860;DHT22;1945;52.036;8.614;2022-09-20T10:40:34;14.30;99.90
3860;DHT22;1945;52.036;8.614;2022-09-20T10:43:30;13.90;99.90
3860;DHT22;1945;52.036;8.614;2022-09-20T10:46:05;13.80;99.90
3860;DHT22;1945;52.036;8.614;2022-09-20T10:48:40;13.60;99.90
3860;DHT22;1945;52.036;8.614;2022-09-20T10:51:12;13.50;1.00
3860;DHT22;1945;52.036;8.614;2022-09-20T10:53:47;13.50;1.00
3860;DHT22;1945;52.036;8.614;2022-09-20T10:56:24;13.50;1.00
3860;DHT22;1945;52.036;8.614;2022-09-20T10:59:08;13.60;1.00
3860;DHT22;1945;52.036;8.614;2022-09-20T11:01:47;13.60;1.00
3860;DHT22;1945;52.036;8.614;2022-09-20T11:04:28;13.60;1.00
3860;DHT22;1945;52.036;8.614;2022-09-20T11:07:06;13.60;1.00
3860;DHT22;1945;52.036;8.614;2022-09-20T11:09:36;13.80;1.00
3860;DHT22;1945;52.036;8.614;2022-09-20T11:12:11;13.90;1.00
3860;DHT22;1945;52.036;8.614;2022-09-20T11:14:45;13.80;1.00
3860;DHT22;1945;52.036;8.614;2022-09-20T11:17:17;13.90;1.00
3860;DHT22;1945;52.036;8.614;2022-09-20T11:19:49;14.20;80.20
3860;DHT22;1945;52.036;8.614;2022-09-20T11:22:20;14.20;1.00
3860;DHT22;1945;52.036;8.614;2022-09-20T11:24:50;14.50;10.80
3860;DHT22;1945;52.036;8.614;2022-09-20T11:27:25;14.40;1.00
3860;DHT22;1945;52.036;8.614;2022-09-20T11:29:57;14.50;1.00
3860;DHT22;1945;52.036;8.614;2022-09-20T11:32:30;14.30;1.00
3860;DHT22;1945;52.036;8.614;2022-09-20T11:35:04;14.30;1.00
3860;DHT22;1945;52.036;8.614;2022-09-20T11:37:37;14.40;1.00
3860;DHT22;1945;52.036;8.614;2022-09-20T11:40:12;14.40;1.00
3860;DHT22;1945;52.036;8.614;2022-09-20T11:42:42;14.60;1.00
3860;DHT22;1945;52.036;8.614;2022-09-20T11:45:10;14.70;1.00
3860;DHT22;1945;52.036;8.614;2022-09-20T11:47:41;15.00;1.00
3860;DHT22;1945;52.036;8.614;2022-09-20T11:50:31;15.30;1.00
3860;DHT22;1945;52.036;8.614;2022-09-20T11:53:12;15.00;99.90
3860;DHT22;1945;52.036;8.614;2022-09-20T11:55:46;15.00;1.00
3860;DHT22;1945;52.036;8.614;2022-09-20T11:58:17;15.00;99.90
3860;DHT22;1945;52.036;8.614;2022-09-20T12:00:48;15.20;99.90
3860;DHT22;1945;52.036;8.614;2022-09-20T12:03:28;15.10;91.90
3860;DHT22;1945;52.036;8.614;2022-09-20T12:05:58;14.90;1.00
3860;DHT22;1945;52.036;8.614;2022-09-20T12:08:28;14.90;1.00
3860;DHT22;1945;52.036;8.614;2022-09-20T12:10:58;14.90;31.00
3860;DHT22;1945;52.036;8.614;2022-09-20T12:13:27;15.00;1.00
3860;DHT22;1945;52.036;8.614;2022-09-20T12:15:59;14.90;1.00
3860;DHT22;1945;52.036;8.614;2022-09-20T12:18:29;14.90;1.00
3860;DHT22;1945;52.036;8.614;2022-09-20T12:21:08;15.20;1.00
3860;DHT22;1945;52.036;8.614;2022-09-20T12:23:58;15.40;1.00
3860;DHT22;1945;52.036;8.614;2022-09-20T12:26:41;15.30;1.00
3860;DHT22;1945;52.036;8.614;2022-09-20T12:35:57;15.00;1.00
3860;DHT22;1945;52.036;8.614;2022-09-20T12:41:15;15.60;99.90
3860;DHT22;1945;52.036;8.614;2022-09-20T12:43:50;15.60;99.90
3860;DHT22;1945;52.036;8.614;2022-09-20T12:46:34;15.50;99.90
3860;DHT22;1945;52.036;8.614;2022-09-20T12:49:41;15.40;99.90
3860;DHT22;1945;52.036;8.614;2022-09-20T12:55:40;15.50;1.00
3860;DHT22;1945;52.036;8.614;2022-09-20T12:58:37;15.60;99.90
3860;DHT22;1945;52.036;8.614;2022-09-20T13:01:28;15.30;99.90
3860;DHT22;1945;52.036;8.614;2022-09-20T13:10:28;15.40;99.90
3860;DHT22;1945;52.036;8.614;2022-09-20T13:13:11;15.40;99.90
3860;DHT22;1945;52.036;8.614;2022-09-20T13:15:39;15.40;99.90
3860;DHT22;1945;52.036;8.614;2022-09-20T13:18:06;15.50;99.90
3860;DHT22;1945;52.036;8.614;2022-09-20T13:20:40;15.50;1.00
3860;DHT22;1945;52.036;8.614;2022-09-20T13:23:16;15.40;1.00
3860;DHT22;1945;52.036;8.614;2022-09-20T13:25:46;15.50;1.00
3860;DHT22;1945;52.036;8.614;2022-09-20T13:28:23;15.50;1.00
3860;DHT22;1945;52.036;8.614;2022-09-20T13:31:19;15.50;99.90
3860;DHT22;1945;52.036;8.614;2022-09-20T13:33:47;15.60;99.90
3860;DHT22;1945;52.036;8.614;2022-09-20T13:36:21;15.60;1.00
3860;DHT22;1945;52.036;8.614;2022-09-20T13:38:49;15.50;1.00
3860;DHT22;1945;52.036;8.614;2022-09-20T13:41:17;15.50;99.90
3860;DHT22;1945;52.036;8.614;2022-09-20T13:43:45;15.50;1.00
3860;DHT22;1945;52.036;8.614;2022-09-20T13:46:15;15.60;1.00
3860;DHT22;1945;52.036;8.614;2022-09-20T13:48:42;15.50;24.40
3860;DHT22;1945;52.036;8.614;2022-09-20T13:51:17;15.50;33.20
3860;DHT22;1945;52.036;8.614;2022-09-20T13:53:44;15.70;1.00
3860;DHT22;1945;52.036;8.614;2022-09-20T13:56:19;15.70;1.00
3860;DHT22;1945;52.036;8.614;2022-09-20T13:58:47;15.80;1.00
3860;DHT22;1945;52.036;8.614;2022-09-20T14:01:23;15.90;1.00
3860;DHT22;1945;52.036;8.614;2022-09-20T14:03:52;15.90;1.00
3860;DHT22;1945;52.036;8.614;2022-09-20T14:06:23;15.70;1.00
3860;DHT22;1945;52.036;8.614;2022-09-20T14:08:52;15.50;1.00
3860;DHT22;1945;52.036;8.614;2022-09-20T14:11:22;15.30;1.00
3860;DHT22;1945;52.036;8.614;2022-09-20T14:13:53;15.20;1.00
3860;DHT22;1945;52.036;8.614;2022-09-20T14:16:23;15.10;1.00
3860;DHT22;1945;52.036;8.614;2022-09-20T14:18:53;15.10;1.00
3860;DHT22;1945;52.036;8.614;2022-09-20T14:21:24;15.20;1.00
3860;DHT22;1945;52.036;8.614;2022-09-20T14:23:53;15.20;1.00
3860;DHT22;1945;52.036;8.614;2022-09-20T14:26:24;15.40;1.00
3860;DHT22;1945;52.036;8.614;2022-09-20T14:28:52;15.50;1.00
3860;DHT22;1945;52.036;8.614;2022-09-20T14:31:22;15.60;1.00
3860;DHT22;1945;52.036;8.614;2022-09-20T14:33:51;15.70;1.00
3860;DHT22;1945;52.036;8.614;2022-09-20T14:36:25;15.50;1.00
3860;DHT22;1945;52.036;8.614;2022-09-20T14:38:54;15.50;1.00
3860;DHT22;1945;52.036;8.614;2022-09-20T14:41:26;15.50;1.00
3860;DHT22;1945;52.036;8.614;2022-09-20T14:43:55;15.30;1.00
3860;DHT22;1945;52.036;8.614;2022-09-20T14:46:30;15.20;1.00
3860;DHT22;1945;52.036;8.614;2022-09-20T14:49:30;15.10;1.00
3860;DHT22;1945;52.036;8.614;2022-09-20T14:52:29;15.10;1.00
3860;DHT22;1945;52.036;8.614;2022-09-20T14:54:59;15.10;1.00
3860;DHT22;1945;52.036;8.614;2022-09-20T14:57:28;15.00;1.00
3860;DHT22;1945;52.036;8.614;2022-09-20T14:59:56;15.00;1.00
3860;DHT22;1945;52.036;8.614;2022-09-20T15:02:24;15.00;1.00
3860;DHT22;1945;52.036;8.614;2022-09-20T15:04:52;15.00;1.00
3860;DHT22;1945;52.036;8.614;2022-09-20T15:07:20;15.00;1.00
3860;DHT22;1945;52.036;8.614;2022-09-20T15:09:46;15.10;1.00
3860;DHT22;1945;52.036;8.614;2022-09-20T15:12:15;15.10;99.90
3860;DHT22;1945;52.036;8.614;2022-09-20T15:14:44;15.10;1.00
3860;DHT22;1945;52.036;8.614;2022-09-20T15:17:14;15.10;1.00
3860;DHT22;1945;52.036;8.614;2022-09-20T15:19:41;15.20;1.00
3860;DHT22;1945;52.036;8.614;2022-09-20T15:22:09;15.20;1.00
3860;DHT22;1945;52.036;8.614;2022-09-20T15:24:36;15.20;1.00
3860;DHT22;1945;52.036;8.614;2022-09-20T15:27:03;15.30;82.10
3860;DHT22;1945;52.036;8.614;2022-09-20T15:29:30;15.30;1.00
3860;DHT22;1945;52.036;8.614;2022-09-20T15:31:58;15.30;1.00
3860;DHT22;1945;52.036;8.614;2022-09-20T15:34:25;15.30;51.90
3860;DHT22;1945;52.036;8.614;2022-09-20T15:36:53;15.30;1.00
3860;DHT22;1945;52.036;8.614;2022-09-20T15:39:19;15.10;1.00
3860;DHT22;1945;52.036;8.614;2022-09-20T15:41:50;15.10;1.00
3860;DHT22;1945;52.036;8.614;2022-09-20T15:44:17;15.00;1.00
3860;DHT22;1945;52.036;8.614;2022-09-20T15:46:44;14.90;1.00
3860;DHT22;1945;52.036;8.614;2022-09-20T15:49:14;14.90;99.90
3860;DHT22;1945;52.036;8.614;2022-09-20T15:51:40;14.90;99.90
3860;DHT22;1945;52.036;8.614;2022-09-20T15:54:11;15.00;41.80
3860;DHT22;1945;52.036;8.614;2022-09-20T15:56:39;15.00;1.00
3860;DHT22;1945;52.036;8.614;2022-09-20T15:59:07;15.00;1.00
3860;DHT22;1945;52.036;8.614;2022-09-20T16:01:36;15.00;60.90
3860;DHT22;1945;52.036;8.614;2022-09-20T16:04:05;15.00;38.70
3860;DHT22;1945;52.036;8.614;2022-09-20T16:06:34;15.00;99.90
3860;DHT22;1945;52.036;8.614;2022-09-20T16:09:01;14.90;1.00
3860;DHT22;1945;52.036;8.614;2022-09-20T16:11:28;14.80;1.00
3860;DHT22;1945;52.036;8.614;2022-09-20T16:13:56;14.80;1.00
3860;DHT22;1945;52.036;8.614;2022-09-20T16:16:24;14.80;1.00
3860;DHT22;1945;52.036;8.614;2022-09-20T16:18:51;14.80;1.00
3860;DHT22;1945;52.036;8.614;2022-09-20T16:21:37;14.70;1.00
3860;DHT22;1945;52.036;8.614;2022-09-20T16:24:05;14.70;1.00
3860;DHT22;1945;52.036;8.614;2022-09-20T16:26:33;14.60;1.00
3860;DHT22;1945;52.036;8.614;2022-09-20T16:29:01;14.60;1.00
3860;DHT22;1945;52.036;8.614;2022-09-20T16:31:34;14.70;1.00
3860;DHT22;1945;52.036;8.614;2022-09-20T16:34:07;14.70;1.00
3860;DHT22;1945;52.036;8.614;2022-09-20T16:36:37;14.60;1.00
3860;DHT22;1945;52.036;8.614;2022-09-20T16:39:06;14.60;1.00
3860;DHT22;1945;52.036;8.614;2022-09-20T16:41:33;14.50;1.00
3860;DHT22;1945;52.036;8.614;2022-09-20T16:44:00;14.40;1.00
3860;DHT22;1945;52.036;8.614;2022-09-20T16:46:29;14.40;1.00
3860;DHT22;1945;52.036;8.614;2022-09-20T16:48:57;14.30;99.90
3860;DHT22;1945;52.036;8.614;2022-09-20T16:51:29;14.30;99.90
3860;DHT22;1945;52.036;8.614;2022-09-20T16:54:00;14.20;99.90
3860;DHT22;1945;52.036;8.614;2022-09-20T16:56:29;14.20;99.90
3860;DHT22;1945;52.036;8.614;2022-09-20T16:58:58;14.20;99.90
3860;DHT22;1945;52.036;8.614;2022-09-20T17:01:25;14.10;99.90
3860;DHT22;1945;52.036;8.614;2022-09-20T17:03:52;14.00;99.90
3860;DHT22;1945;52.036;8.614;2022-09-20T17:06:19;13.90;99.90
3860;DHT22;1945;52.036;8.614;2022-09-20T17:08:46;13.80;1.00
3860;DHT22;1945;52.036;8.614;2022-09-20T17:11:16;13.70;1.00
3860;DHT22;1945;52.036;8.614;2022-09-20T17:13:44;13.70;1.00
3860;DHT22;1945;52.036;8.614;2022-09-20T17:16:13;13.60;1.00
3860;DHT22;1945;52.036;8.614;2022-09-20T17:18:40;13.60;1.00
3860;DHT22;1945;52.036;8.614;2022-09-20T17:21:09;13.50;1.00
3860;DHT22;1945;52.036;8.614;2022-09-20T17:23:37;13.50;1.00
3860;DHT22;1945;52.036;8.614;2022-09-20T17:26:06;13.40;1.00
3860;DHT22;1945;52.036;8.614;2022-09-20T17:28:36;13.30;1.00
3860;DHT22;1945;52.036;8.614;2022-09-20T17:31:03;13.20;1.00
3860;DHT22;1945;52.036;8.614;2022-09-20T17:33:31;13.10;1.00
3860;DHT22;1945;52.036;8.614;2022-09-20T17:35:59;13.00;1.00
3860;DHT22;1945;52.036;8.614;2022-09-20T17:38:26;13.00;1.00